Aérodrome :







RETROUVEZ-NOUS SUR...

 
LOGIN :

S'inscrire | Disclaimer

   EN    FR    IT 

 









Légende :    VFR   VFR Marginal   IFR   IFR Intensif   IFR Très Intensif
Visi : 
Plafond : 
>= 8 km
>= 3000ft
5 à 8 km
1000 à 3000 ft
1500m à 5 km
500 à 1000 ft
800 à 1500m
200 à 500 ft
< 800m
< 200 ft
Symboles :   Orages  Brouillard  Fortes neiges  Fortes précipitations  Vent > 20 kt






- Altitude de l'aérodrome : 241 ft
- Code IATA : CEF


KCEF - Westover ARB/Metropolitan

DERNIER METAR :
  • 202156Z 00000KT 10SM FEW030 BKN100 BKN140 BKN170 19/16 A3021 RMK AO2A SLP236 T01900158

METARs EXPIRÉS :
  • 202056Z 00000KT 10SM FEW022 SCT100 BKN140 BKN170 20/15 A3020 RMK AO2A SLP233 T02020152 55006
  • 201956Z 19005KT 10SM SCT022 BKN140 21/15 A3019 RMK AO2A SLP229 T02060154

TAF TAF KCEF
Valide du 20 à 21h jusqu'au 22 à 03h UTC


202105Z 2021/2203 VRB06KT 9999 SCT022 BKN100 BKN140 QNH3019INS
BECMG 2100/2101 VRB06KT 9999 BKN018 OVC100 QNH3025INS
BECMG 2101/2102 VRB06KT 6000 BR OVC010 QNH3025INS
BECMG 2103/2104 VRB06KT 3200 BR OVC007 QNH3024INS
BECMG 2114/2115 19009KT 8000 BR OVC010 510104 QNH3019INS
BECMG 2117/2118 21012G18KT 9999 NSW SCT018 BKN050 510004 QNH3016INS
BECMG 2121/2122 22012KT 9999 SCT015 OVC050 510104 QNH3016INS
BECMG 2200/2201 22009KT 9999 OVC010 510104 QNH3017INS TX22/2120Z TN13/2111Z LAST NO AMDS AFT 2103 NEXT 2113
FIR KZBW / Amérique du Nord



MET'MAP, la Météo Aéronautique d'un coup d'oeil ! - Copyright ORBIFLY Décembre 2007 - Disclaimer

ORBIFLY MET'MAP TEAM :

Programmation & Développement : Alexandra Zaïnal
Sur une idée originale de : Baudouin d'Aumeries
Assistance à la programmation : Marc-Olivier Méhu
Soutien technique & logistique : Manuel Goepfert

Contact : metmap@orbifly.com




SOURCES & CREDITS :

   NOAA